sensor_id;sensor_type;location;lat;lon;timestamp;pressure;altitude;pressure_sealevel;temperature;humidity
77360;BME280;66426;51.454;7.266;2023-07-31T00:00:34;99642.00;;;15.49;nan
77360;BME280;66426;51.454;7.266;2023-07-31T00:01:35;99645.44;;;15.40;nan
77360;BME280;66426;51.454;7.266;2023-07-31T00:02:36;99634.94;;;15.46;nan
77360;BME280;66426;51.454;7.266;2023-07-31T00:03:37;99630.53;;;15.45;nan
77360;BME280;66426;51.454;7.266;2023-07-31T00:04:37;99633.09;;;15.47;nan
77360;BME280;66426;51.454;7.266;2023-07-31T00:05:38;99634.56;;;15.40;nan
77360;BME280;66426;51.454;7.266;2023-07-31T00:06:40;99628.03;;;15.42;nan
77360;BME280;66426;51.454;7.266;2023-07-31T00:07:41;99643.47;;;15.42;nan
77360;BME280;66426;51.454;7.266;2023-07-31T00:08:42;99634.94;;;15.46;nan
77360;BME280;66426;51.454;7.266;2023-07-31T00:09:43;99633.34;;;15.44;nan
77360;BME280;66426;51.454;7.266;2023-07-31T00:10:44;99633.59;;;15.41;nan
77360;BME280;66426;51.454;7.266;2023-07-31T00:11:45;99631.13;;;15.38;nan
77360;BME280;66426;51.454;7.266;2023-07-31T00:12:46;99633.59;;;15.41;nan
77360;BME280;66426;51.454;7.266;2023-07-31T00:13:47;99628.66;;;15.46;nan
77360;BME280;66426;51.454;7.266;2023-07-31T00:14:48;99635.81;;;15.47;nan
77360;BME280;66426;51.454;7.266;2023-07-31T00:15:49;99635.56;;;15.39;nan
77360;BME280;66426;51.454;7.266;2023-07-31T00:16:50;99640.25;;;15.37;nan
77360;BME280;66426;51.454;7.266;2023-07-31T00:17:51;99635.66;;;15.37;nan
77360;BME280;66426;51.454;7.266;2023-07-31T00:18:52;99632.72;;;15.29;nan
77360;BME280;66426;51.454;7.266;2023-07-31T00:19:53;99634.31;;;15.31;nan
77360;BME280;66426;51.454;7.266;2023-07-31T00:20:54;99643.09;;;15.35;nan
77360;BME280;66426;51.454;7.266;2023-07-31T00:21:56;99625.56;;;15.39;nan
77360;BME280;66426;51.454;7.266;2023-07-31T00:22:57;99633.72;;;15.39;nan
77360;BME280;66426;51.454;7.266;2023-07-31T00:23:58;99626.91;;;15.45;nan
77360;BME280;66426;51.454;7.266;2023-07-31T00:24:58;99627.16;;;15.42;nan
77360;BME280;66426;51.454;7.266;2023-07-31T00:26:00;99626.41;;;15.40;nan
77360;BME280;66426;51.454;7.266;2023-07-31T00:27:01;99623.34;;;15.44;nan
77360;BME280;66426;51.454;7.266;2023-07-31T00:28:02;99622.59;;;15.42;nan
77360;BME280;66426;51.454;7.266;2023-07-31T00:29:03;99623.50;;;15.43;nan
77360;BME280;66426;51.454;7.266;2023-07-31T00:30:04;99619.03;;;15.42;nan
77360;BME280;66426;51.454;7.266;2023-07-31T00:31:05;99617.91;;;15.44;nan
77360;BME280;66426;51.454;7.266;2023-07-31T00:32:06;99627.91;;;15.44;nan
77360;BME280;66426;51.454;7.266;2023-07-31T00:33:07;99625.91;;;15.35;nan
77360;BME280;66426;51.454;7.266;2023-07-31T00:34:08;99621.25;;;15.37;nan
77360;BME280;66426;51.454;7.266;2023-07-31T00:35:09;99620.50;;;15.35;nan
77360;BME280;66426;51.454;7.266;2023-07-31T00:36:10;99615.56;;;15.40;nan
77360;BME280;66426;51.454;7.266;2023-07-31T00:37:12;99620.28;;;15.38;nan
77360;BME280;66426;51.454;7.266;2023-07-31T00:38:13;99625.56;;;15.28;nan
77360;BME280;66426;51.454;7.266;2023-07-31T00:39:14;99624.31;;;15.32;nan
77360;BME280;66426;51.454;7.266;2023-07-31T00:40:15;99624.81;;;15.37;nan
77360;BME280;66426;51.454;7.266;2023-07-31T00:41:16;99631.84;;;15.40;nan
77360;BME280;66426;51.454;7.266;2023-07-31T00:42:17;99627.31;;;15.40;nan
77360;BME280;66426;51.454;7.266;2023-07-31T00:43:18;99633.59;;;15.41;nan
77360;BME280;66426;51.454;7.266;2023-07-31T00:44:19;99618.91;;;15.43;nan
77360;BME280;66426;51.454;7.266;2023-07-31T00:45:20;99623.72;;;15.40;nan
77360;BME280;66426;51.454;7.266;2023-07-31T00:46:23;99624.34;;;15.43;nan
77360;BME280;66426;51.454;7.266;2023-07-31T00:47:24;99620.78;;;15.43;nan
77360;BME280;66426;51.454;7.266;2023-07-31T00:48:25;99629.63;;;15.45;nan
77360;BME280;66426;51.454;7.266;2023-07-31T00:49:27;99630.63;;;15.44;nan
77360;BME280;66426;51.454;7.266;2023-07-31T00:50:28;99631.75;;;15.41;nan
77360;BME280;66426;51.454;7.266;2023-07-31T00:51:29;99623.09;;;15.47;nan
77360;BME280;66426;51.454;7.266;2023-07-31T00:52:31;99609.66;;;15.46;nan
77360;BME280;66426;51.454;7.266;2023-07-31T00:53:32;99615.84;;;15.48;nan
77360;BME280;66426;51.454;7.266;2023-07-31T00:54:33;99618.66;;;15.35;nan
77360;BME280;66426;51.454;7.266;2023-07-31T00:55:34;99623.50;;;15.43;nan
77360;BME280;66426;51.454;7.266;2023-07-31T00:56:35;99623.25;;;15.46;nan
77360;BME280;66426;51.454;7.266;2023-07-31T00:57:37;99610.03;;;15.41;nan
77360;BME280;66426;51.454;7.266;2023-07-31T00:58:38;99618.28;;;15.40;nan
77360;BME280;66426;51.454;7.266;2023-07-31T00:59:39;99609.28;;;15.39;nan
77360;BME280;66426;51.454;7.266;2023-07-31T01:00:40;99620.03;;;15.41;nan
77360;BME280;66426;51.454;7.266;2023-07-31T01:01:41;99618.16;;;15.41;nan
77360;BME280;66426;51.454;7.266;2023-07-31T01:02:42;99610.88;;;15.42;nan
77360;BME280;66426;51.454;7.266;2023-07-31T01:03:43;99622.38;;;15.45;nan
77360;BME280;66426;51.454;7.266;2023-07-31T01:04:44;99613.22;;;15.46;nan
77360;BME280;66426;51.454;7.266;2023-07-31T01:05:49;99607.06;;;15.44;nan
77360;BME280;66426;51.454;7.266;2023-07-31T01:06:53;99618.56;;;15.48;nan
77360;BME280;66426;51.454;7.266;2023-07-31T01:07:59;99601.38;;;15.47;nan
77360;BME280;66426;51.454;7.266;2023-07-31T01:09:04;99606.81;;;15.36;nan
77360;BME280;66426;51.454;7.266;2023-07-31T01:10:08;99618.41;;;15.38;nan
77360;BME280;66426;51.454;7.266;2023-07-31T01:11:14;99613.00;;;15.38;nan
77360;BME280;66426;51.454;7.266;2023-07-31T01:12:16;99635.94;;;15.45;nan
77360;BME280;66426;51.454;7.266;2023-07-31T01:13:17;99605.69;;;15.50;nan
77360;BME280;66426;51.454;7.266;2023-07-31T01:14:18;99614.84;;;15.49;nan
77360;BME280;66426;51.454;7.266;2023-07-31T01:15:19;99615.19;;;15.44;nan
77360;BME280;66426;51.454;7.266;2023-07-31T01:16:21;99605.94;;;15.47;nan
77360;BME280;66426;51.454;7.266;2023-07-31T01:17:22;99621.88;;;15.40;nan
77360;BME280;66426;51.454;7.266;2023-07-31T01:18:23;99615.97;;;15.35;nan
77360;BME280;66426;51.454;7.266;2023-07-31T01:19:24;99613.00;;;15.38;nan
77360;BME280;66426;51.454;7.266;2023-07-31T01:20:27;99618.91;;;15.43;nan
77360;BME280;66426;51.454;7.266;2023-07-31T01:21:39;99614.72;;;15.39;nan
77360;BME280;66426;51.454;7.266;2023-07-31T01:24:18;99613.09;;;15.37;nan
77360;BME280;66426;51.454;7.266;2023-07-31T01:25:23;99610.63;;;15.45;nan
77360;BME280;66426;51.454;7.266;2023-07-31T01:26:32;99619.16;;;15.40;nan
77360;BME280;66426;51.454;7.266;2023-07-31T01:27:35;99612.38;;;15.46;nan
77360;BME280;66426;51.454;7.266;2023-07-31T01:28:42;99610.28;;;15.49;nan
77360;BME280;66426;51.454;7.266;2023-07-31T01:29:47;99611.13;;;15.50;nan
77360;BME280;66426;51.454;7.266;2023-07-31T01:30:49;99609.66;;;15.46;nan
77360;BME280;66426;51.454;7.266;2023-07-31T01:31:50;99602.13;;;15.49;nan
77360;BME280;66426;51.454;7.266;2023-07-31T01:32:53;99624.84;;;15.48;nan
77360;BME280;66426;51.454;7.266;2023-07-31T01:33:56;99614.94;;;15.47;nan
77360;BME280;66426;51.454;7.266;2023-07-31T01:34:58;99615.56;;;15.40;nan
77360;BME280;66426;51.454;7.266;2023-07-31T01:36:00;99610.38;;;15.37;nan
77360;BME280;66426;51.454;7.266;2023-07-31T01:37:01;99606.56;;;15.39;nan
77360;BME280;66426;51.454;7.266;2023-07-31T01:38:02;99614.72;;;15.39;nan
77360;BME280;66426;51.454;7.266;2023-07-31T01:39:03;99623.50;;;15.43;nan
77360;BME280;66426;51.454;7.266;2023-07-31T01:40:05;99620.38;;;15.47;nan
77360;BME280;66426;51.454;7.266;2023-07-31T01:41:06;99616.56;;;15.50;nan
77360;BME280;66426;51.454;7.266;2023-07-31T01:42:08;99617.06;;;15.44;nan
77360;BME280;66426;51.454;7.266;2023-07-31T01:43:09;99610.78;;;15.43;nan
77360;BME280;66426;51.454;7.266;2023-07-31T01:44:10;99608.06;;;15.43;nan
77360;BME280;66426;51.454;7.266;2023-07-31T01:45:11;99612.03;;;15.50;nan
77360;BME280;66426;51.454;7.266;2023-07-31T01:46:12;99616.94;;;15.45;nan
77360;BME280;66426;51.454;7.266;2023-07-31T01:47:13;99607.19;;;15.43;nan
77360;BME280;66426;51.454;7.266;2023-07-31T01:48:14;99616.81;;;15.47;nan
77360;BME280;66426;51.454;7.266;2023-07-31T01:49:15;99614.22;;;15.45;nan
77360;BME280;66426;51.454;7.266;2023-07-31T01:50:16;99615.47;;;15.52;nan
77360;BME280;66426;51.454;7.266;2023-07-31T01:51:17;99617.66;;;15.47;nan
77360;BME280;66426;51.454;7.266;2023-07-31T01:52:18;99606.69;;;15.49;nan
77360;BME280;66426;51.454;7.266;2023-07-31T01:53:19;99605.84;;;15.48;nan
77360;BME280;66426;51.454;7.266;2023-07-31T01:54:19;99598.66;;;15.47;nan
77360;BME280;66426;51.454;7.266;2023-07-31T01:55:20;99597.06;;;15.34;nan
77360;BME280;66426;51.454;7.266;2023-07-31T01:56:21;99600.38;;;15.37;nan
77360;BME280;66426;51.454;7.266;2023-07-31T01:57:23;99601.03;;;15.41;nan
77360;BME280;66426;51.454;7.266;2023-07-31T01:58:24;99597.06;;;15.34;nan
77360;BME280;66426;51.454;7.266;2023-07-31T01:59:25;99609.91;;;15.43;nan
77360;BME280;66426;51.454;7.266;2023-07-31T02:00:26;99592.63;;;15.32;nan
77360;BME280;66426;51.454;7.266;2023-07-31T02:01:27;99598.06;;;15.32;nan
77360;BME280;66426;51.454;7.266;2023-07-31T02:02:28;99586.34;;;15.43;nan
77360;BME280;66426;51.454;7.266;2023-07-31T02:03:28;99593.63;;;15.43;nan
77360;BME280;66426;51.454;7.266;2023-07-31T02:04:29;99589.91;;;15.44;nan
77360;BME280;66426;51.454;7.266;2023-07-31T02:05:30;99607.06;;;15.44;nan
77360;BME280;66426;51.454;7.266;2023-07-31T02:06:31;99601.63;;;15.44;nan
77360;BME280;66426;51.454;7.266;2023-07-31T02:07:32;99594.47;;;15.43;nan
77360;BME280;66426;51.454;7.266;2023-07-31T02:08:33;99600.78;;;15.44;nan
77360;BME280;66426;51.454;7.266;2023-07-31T02:09:34;99601.63;;;15.44;nan
77360;BME280;66426;51.454;7.266;2023-07-31T02:10:35;99608.66;;;15.47;nan
77360;BME280;66426;51.454;7.266;2023-07-31T02:11:35;99595.72;;;15.39;nan
77360;BME280;66426;51.454;7.266;2023-07-31T02:12:38;99598.16;;;15.42;nan
77360;BME280;66426;51.454;7.266;2023-07-31T02:13:39;99600.28;;;15.39;nan
77360;BME280;66426;51.454;7.266;2023-07-31T02:14:40;99600.28;;;15.39;nan
77360;BME280;66426;51.454;7.266;2023-07-31T02:15:41;99594.25;;;15.35;nan
77360;BME280;66426;51.454;7.266;2023-07-31T02:16:41;99598.16;;;15.42;nan
77360;BME280;66426;51.454;7.266;2023-07-31T02:17:43;99590.03;;;15.42;nan
77360;BME280;66426;51.454;7.266;2023-07-31T02:18:44;99585.34;;;15.44;nan
77360;BME280;66426;51.454;7.266;2023-07-31T02:19:45;99590.28;;;15.39;nan
77360;BME280;66426;51.454;7.266;2023-07-31T02:20:48;99584.00;;;15.39;nan
77360;BME280;66426;51.454;7.266;2023-07-31T02:21:49;99587.19;;;15.44;nan
77360;BME280;66426;51.454;7.266;2023-07-31T02:22:50;99591.63;;;15.45;nan
77360;BME280;66426;51.454;7.266;2023-07-31T02:23:51;99585.09;;;15.36;nan
77360;BME280;66426;51.454;7.266;2023-07-31T02:24:52;99578.19;;;15.43;nan
77360;BME280;66426;51.454;7.266;2023-07-31T02:25:53;99590.16;;;15.41;nan
77360;BME280;66426;51.454;7.266;2023-07-31T02:26:54;99585.84;;;15.38;nan
77360;BME280;66426;51.454;7.266;2023-07-31T02:27:56;99581.88;;;15.42;nan
77360;BME280;66426;51.454;7.266;2023-07-31T02:28:57;99584.59;;;15.42;nan
77360;BME280;66426;51.454;7.266;2023-07-31T02:29:58;99578.81;;;15.36;nan
77360;BME280;66426;51.454;7.266;2023-07-31T02:31:00;99578.91;;;15.34;nan
77360;BME280;66426;51.454;7.266;2023-07-31T02:32:00;99585.69;;;15.40;nan
77360;BME280;66426;51.454;7.266;2023-07-31T02:33:01;99581.88;;;15.42;nan
77360;BME280;66426;51.454;7.266;2023-07-31T02:34:03;99595.09;;;15.36;nan
77360;BME280;66426;51.454;7.266;2023-07-31T02:35:04;99580.28;;;15.40;nan
77360;BME280;66426;51.454;7.266;2023-07-31T02:36:05;99591.28;;;15.38;nan
77360;BME280;66426;51.454;7.266;2023-07-31T02:37:06;99591.28;;;15.38;nan
77360;BME280;66426;51.454;7.266;2023-07-31T02:38:07;99590.41;;;15.38;nan
77360;BME280;66426;51.454;7.266;2023-07-31T02:39:07;99586.22;;;15.34;nan
77360;BME280;66426;51.454;7.266;2023-07-31T02:40:09;99587.06;;;15.34;nan
77360;BME280;66426;51.454;7.266;2023-07-31T02:41:10;99584.09;;;15.37;nan
77360;BME280;66426;51.454;7.266;2023-07-31T02:42:12;99584.22;;;15.47;nan
77360;BME280;66426;51.454;7.266;2023-07-31T02:43:14;99576.34;;;15.44;nan
77360;BME280;66426;51.454;7.266;2023-07-31T02:44:15;99584.75;;;15.41;nan
77360;BME280;66426;51.454;7.266;2023-07-31T02:45:16;99588.28;;;15.30;nan
77360;BME280;66426;51.454;7.266;2023-07-31T02:46:17;99589.53;;;15.26;nan
77360;BME280;66426;51.454;7.266;2023-07-31T02:47:18;99577.31;;;15.31;nan
77360;BME280;66426;51.454;7.266;2023-07-31T02:48:19;99586.09;;;15.35;nan
77360;BME280;66426;51.454;7.266;2023-07-31T02:49:20;99584.00;;;15.39;nan
77360;BME280;66426;51.454;7.266;2023-07-31T02:50:21;99578.91;;;15.34;nan
77360;BME280;66426;51.454;7.266;2023-07-31T02:51:22;99576.72;;;15.39;nan
77360;BME280;66426;51.454;7.266;2023-07-31T02:52:22;99585.00;;;15.38;nan
77360;BME280;66426;51.454;7.266;2023-07-31T02:53:23;99592.13;;;15.39;nan
77360;BME280;66426;51.454;7.266;2023-07-31T02:54:24;99579.56;;;15.38;nan
77360;BME280;66426;51.454;7.266;2023-07-31T02:55:25;99581.78;;;15.32;nan
77360;BME280;66426;51.454;7.266;2023-07-31T02:56:26;99578.81;;;15.36;nan
77360;BME280;66426;51.454;7.266;2023-07-31T02:57:27;99582.78;;;15.43;nan
77360;BME280;66426;51.454;7.266;2023-07-31T02:58:29;99579.91;;;15.44;nan
77360;BME280;66426;51.454;7.266;2023-07-31T02:59:30;99573.03;;;15.40;nan
77360;BME280;66426;51.454;7.266;2023-07-31T03:00:31;99573.75;;;15.42;nan
77360;BME280;66426;51.454;7.266;2023-07-31T03:01:32;99568.94;;;15.35;nan
77360;BME280;66426;51.454;7.266;2023-07-31T03:02:33;99584.84;;;15.39;nan
77360;BME280;66426;51.454;7.266;2023-07-31T03:03:34;99578.19;;;15.43;nan
77360;BME280;66426;51.454;7.266;2023-07-31T03:04:35;99570.78;;;15.34;nan
77360;BME280;66426;51.454;7.266;2023-07-31T03:05:35;99577.72;;;15.38;nan
77360;BME280;66426;51.454;7.266;2023-07-31T03:06:36;99579.78;;;15.35;nan
77360;BME280;66426;51.454;7.266;2023-07-31T03:07:37;99573.50;;;15.45;nan
77360;BME280;66426;51.454;7.266;2023-07-31T03:08:38;99562.78;;;15.44;nan
77360;BME280;66426;51.454;7.266;2023-07-31T03:09:39;99571.28;;;15.39;nan
77360;BME280;66426;51.454;7.266;2023-07-31T03:10:40;99565.72;;;15.41;nan
77360;BME280;66426;51.454;7.266;2023-07-31T03:11:41;99558.19;;;15.44;nan
77360;BME280;66426;51.454;7.266;2023-07-31T03:12:42;99568.19;;;15.44;nan
77360;BME280;66426;51.454;7.266;2023-07-31T03:13:44;99565.47;;;15.44;nan
77360;BME280;66426;51.454;7.266;2023-07-31T03:14:45;99570.31;;;15.40;nan
77360;BME280;66426;51.454;7.266;2023-07-31T03:15:46;99557.34;;;15.44;nan
77360;BME280;66426;51.454;7.266;2023-07-31T03:16:47;99558.44;;;15.41;nan
77360;BME280;66426;51.454;7.266;2023-07-31T03:17:48;99554.50;;;15.34;nan
77360;BME280;66426;51.454;7.266;2023-07-31T03:18:48;99559.44;;;15.40;nan
77360;BME280;66426;51.454;7.266;2023-07-31T03:19:49;99560.16;;;15.42;nan
77360;BME280;66426;51.454;7.266;2023-07-31T03:20:50;99553.63;;;15.45;nan
77360;BME280;66426;51.454;7.266;2023-07-31T03:21:51;99561.16;;;15.41;nan
77360;BME280;66426;51.454;7.266;2023-07-31T03:22:52;99557.34;;;15.44;nan
77360;BME280;66426;51.454;7.266;2023-07-31T03:23:53;99558.94;;;15.46;nan
77360;BME280;66426;51.454;7.266;2023-07-31T03:24:54;99556.97;;;15.48;nan
77360;BME280;66426;51.454;7.266;2023-07-31T03:25:55;99560.53;;;15.49;nan
77360;BME280;66426;51.454;7.266;2023-07-31T03:26:56;99555.22;;;15.47;nan
77360;BME280;66426;51.454;7.266;2023-07-31T03:27:57;99562.25;;;15.50;nan
77360;BME280;66426;51.454;7.266;2023-07-31T03:29:00;99569.69;;;15.48;nan
77360;BME280;66426;51.454;7.266;2023-07-31T03:30:00;99558.56;;;15.51;nan
77360;BME280;66426;51.454;7.266;2023-07-31T03:31:01;99554.84;;;15.52;nan
77360;BME280;66426;51.454;7.266;2023-07-31T03:32:03;99550.19;;;15.54;nan
77360;BME280;66426;51.454;7.266;2023-07-31T03:33:03;99550.91;;;15.56;nan
77360;BME280;66426;51.454;7.266;2023-07-31T03:34:04;99556.59;;;15.53;nan
77360;BME280;66426;51.454;7.266;2023-07-31T03:35:05;99565.72;;;15.52;nan
77360;BME280;66426;51.454;7.266;2023-07-31T03:36:06;99556.94;;;15.60;nan
77360;BME280;66426;51.454;7.266;2023-07-31T03:37:08;99552.41;;;15.60;nan
77360;BME280;66426;51.454;7.266;2023-07-31T03:38:09;99558.94;;;15.58;nan
77360;BME280;66426;51.454;7.266;2023-07-31T03:39:10;99567.09;;;15.58;nan
77360;BME280;66426;51.454;7.266;2023-07-31T03:40:11;99563.75;;;15.54;nan
77360;BME280;66426;51.454;7.266;2023-07-31T03:41:12;99565.97;;;15.60;nan
77360;BME280;66426;51.454;7.266;2023-07-31T03:42:13;99562.16;;;15.63;nan
77360;BME280;66426;51.454;7.266;2023-07-31T03:43:14;99552.63;;;15.57;nan
77360;BME280;66426;51.454;7.266;2023-07-31T03:44:17;99568.81;;;15.59;nan
77360;BME280;66426;51.454;7.266;2023-07-31T03:45:18;99558.94;;;15.58;nan
77360;BME280;66426;51.454;7.266;2023-07-31T03:46:19;99552.78;;;15.56;nan
77360;BME280;66426;51.454;7.266;2023-07-31T03:47:20;99551.91;;;15.55;nan
77360;BME280;66426;51.454;7.266;2023-07-31T03:48:21;99557.34;;;15.55;nan
77360;BME280;66426;51.454;7.266;2023-07-31T03:49:22;99555.50;;;15.56;nan
77360;BME280;66426;51.454;7.266;2023-07-31T03:50:23;99557.59;;;15.63;nan
77360;BME280;66426;51.454;7.266;2023-07-31T03:51:25;99548.06;;;15.69;nan
77360;BME280;66426;51.454;7.266;2023-07-31T03:52:26;99557.59;;;15.63;nan
77360;BME280;66426;51.454;7.266;2023-07-31T03:53:27;99542.53;;;15.59;nan
77360;BME280;66426;51.454;7.266;2023-07-31T03:54:28;99560.56;;;15.60;nan
77360;BME280;66426;51.454;7.266;2023-07-31T03:55:29;99544.75;;;15.65;nan
77360;BME280;66426;51.454;7.266;2023-07-31T03:56:30;99557.09;;;15.69;nan
77360;BME280;66426;51.454;7.266;2023-07-31T03:57:31;99554.72;;;15.65;nan
77360;BME280;66426;51.454;7.266;2023-07-31T03:58:33;99555.84;;;15.62;nan
77360;BME280;66426;51.454;7.266;2023-07-31T03:59:35;99551.53;;;15.60;nan
77360;BME280;66426;51.454;7.266;2023-07-31T04:00:36;99547.22;;;15.68;nan
77360;BME280;66426;51.454;7.266;2023-07-31T04:01:37;99550.78;;;15.69;nan
77360;BME280;66426;51.454;7.266;2023-07-31T04:02:38;99549.81;;;15.70;nan
77360;BME280;66426;51.454;7.266;2023-07-31T04:03:38;99562.53;;;15.69;nan
77360;BME280;66426;51.454;7.266;2023-07-31T04:04:39;99551.66;;;15.69;nan
77360;BME280;66426;51.454;7.266;2023-07-31T04:05:40;99561.56;;;15.70;nan
77360;BME280;66426;51.454;7.266;2023-07-31T04:06:41;99549.81;;;15.70;nan
77360;BME280;66426;51.454;7.266;2023-07-31T04:07:42;99555.50;;;15.78;nan
77360;BME280;66426;51.454;7.266;2023-07-31T04:08:43;99548.31;;;15.77;nan
77360;BME280;66426;51.454;7.266;2023-07-31T04:09:44;99552.63;;;15.80;nan
77360;BME280;66426;51.454;7.266;2023-07-31T04:10:45;99549.44;;;15.74;nan
77360;BME280;66426;51.454;7.266;2023-07-31T04:11:45;99548.72;;;15.72;nan
77360;BME280;66426;51.454;7.266;2023-07-31T04:12:46;99546.97;;;15.71;nan
77360;BME280;66426;51.454;7.266;2023-07-31T04:13:47;99546.13;;;15.71;nan
77360;BME280;66426;51.454;7.266;2023-07-31T04:14:49;99546.00;;;15.72;nan
77360;BME280;66426;51.454;7.266;2023-07-31T04:15:50;99548.31;;;15.77;nan
77360;BME280;66426;51.454;7.266;2023-07-31T04:16:51;99547.47;;;15.77;nan
77360;BME280;66426;51.454;7.266;2023-07-31T04:17:53;99551.31;;;15.74;nan
77360;BME280;66426;51.454;7.266;2023-07-31T04:18:54;99566.63;;;15.75;nan
77360;BME280;66426;51.454;7.266;2023-07-31T04:19:54;99556.09;;;15.82;nan
77360;BME280;66426;51.454;7.266;2023-07-31T04:20:55;99535.72;;;15.87;nan
77360;BME280;66426;51.454;7.266;2023-07-31T04:21:56;99559.56;;;15.84;nan
77360;BME280;66426;51.454;7.266;2023-07-31T04:22:57;99546.47;;;15.89;nan
77360;BME280;66426;51.454;7.266;2023-07-31T04:23:58;99542.88;;;15.88;nan
77360;BME280;66426;51.454;7.266;2023-07-31T04:24:59;99549.28;;;15.87;nan
77360;BME280;66426;51.454;7.266;2023-07-31T04:26:00;99542.78;;;15.79;nan
77360;BME280;66426;51.454;7.266;2023-07-31T04:27:01;99545.13;;;15.83;nan
77360;BME280;66426;51.454;7.266;2023-07-31T04:28:02;99535.72;;;15.87;nan
77360;BME280;66426;51.454;7.266;2023-07-31T04:29:02;99542.75;;;15.90;nan
77360;BME280;66426;51.454;7.266;2023-07-31T04:30:06;99544.00;;;15.86;nan
77360;BME280;66426;51.454;7.266;2023-07-31T04:31:07;99531.75;;;15.91;nan
77360;BME280;66426;51.454;7.266;2023-07-31T04:32:08;99542.50;;;15.93;nan
77360;BME280;66426;51.454;7.266;2023-07-31T04:33:09;99532.41;;;15.84;nan
77360;BME280;66426;51.454;7.266;2023-07-31T04:34:09;99537.56;;;15.87;nan
77360;BME280;66426;51.454;7.266;2023-07-31T04:35:11;99537.19;;;15.91;nan
77360;BME280;66426;51.454;7.266;2023-07-31T04:36:12;99539.16;;;15.89;nan
77360;BME280;66426;51.454;7.266;2023-07-31T04:37:13;99539.16;;;15.89;nan
77360;BME280;66426;51.454;7.266;2023-07-31T04:38:14;99537.56;;;15.87;nan
77360;BME280;66426;51.454;7.266;2023-07-31T04:39:15;99539.06;;;15.91;nan
77360;BME280;66426;51.454;7.266;2023-07-31T04:40:16;99542.63;;;15.91;nan
77360;BME280;66426;51.454;7.266;2023-07-31T04:41:17;99539.16;;;15.89;nan
77360;BME280;66426;51.454;7.266;2023-07-31T04:42:18;99532.03;;;15.88;nan
77360;BME280;66426;51.454;7.266;2023-07-31T04:43:19;99530.16;;;15.89;nan
77360;BME280;66426;51.454;7.266;2023-07-31T04:44:19;99531.88;;;15.90;nan
77360;BME280;66426;51.454;7.266;2023-07-31T04:45:22;99526.22;;;15.93;nan
77360;BME280;66426;51.454;7.266;2023-07-31T04:46:23;99523.34;;;15.94;nan
77360;BME280;66426;51.454;7.266;2023-07-31T04:47:23;99526.31;;;15.91;nan
77360;BME280;66426;51.454;7.266;2023-07-31T04:48:24;99528.03;;;15.92;nan
77360;BME280;66426;51.454;7.266;2023-07-31T04:49:25;99529.25;;;16.00;nan
77360;BME280;66426;51.454;7.266;2023-07-31T04:50:26;99529.78;;;15.93;nan
77360;BME280;66426;51.454;7.266;2023-07-31T04:51:27;99534.47;;;15.91;nan
77360;BME280;66426;51.454;7.266;2023-07-31T04:52:28;99531.75;;;15.91;nan
77360;BME280;66426;51.454;7.266;2023-07-31T04:53:29;99526.44;;;15.90;nan
77360;BME280;66426;51.454;7.266;2023-07-31T04:54:30;99520.53;;;15.85;nan
77360;BME280;66426;51.454;7.266;2023-07-31T04:55:31;99530.91;;;15.91;nan
77360;BME280;66426;51.454;7.266;2023-07-31T04:56:32;99525.09;;;15.84;nan
77360;BME280;66426;51.454;7.266;2023-07-31T04:57:32;99519.06;;;15.81;nan
77360;BME280;66426;51.454;7.266;2023-07-31T04:58:33;99525.09;;;15.84;nan
77360;BME280;66426;51.454;7.266;2023-07-31T04:59:34;99519.41;;;15.87;nan
77360;BME280;66426;51.454;7.266;2023-07-31T05:00:37;99519.19;;;15.79;nan
77360;BME280;66426;51.454;7.266;2023-07-31T05:01:37;99525.47;;;15.80;nan
77360;BME280;66426;51.454;7.266;2023-07-31T05:02:38;99519.66;;;15.84;nan
77360;BME280;66426;51.454;7.266;2023-07-31T05:03:39;99521.28;;;15.87;nan
77360;BME280;66426;51.454;7.266;2023-07-31T05:04:40;99528.69;;;15.85;nan
77360;BME280;66426;51.454;7.266;2023-07-31T05:05:41;99510.78;;;15.82;nan
77360;BME280;66426;51.454;7.266;2023-07-31T05:06:42;99505.81;;;15.87;nan
77360;BME280;66426;51.454;7.266;2023-07-31T05:07:43;99508.44;;;15.89;nan
77360;BME280;66426;51.454;7.266;2023-07-31T05:08:44;99515.19;;;15.94;nan
77360;BME280;66426;51.454;7.266;2023-07-31T05:09:45;99518.53;;;15.98;nan
77360;BME280;66426;51.454;7.266;2023-07-31T05:10:45;99512.84;;;15.90;nan
77360;BME280;66426;51.454;7.266;2023-07-31T05:11:46;99524.34;;;15.82;nan
77360;BME280;66426;51.454;7.266;2023-07-31T05:12:47;99514.59;;;15.91;nan
77360;BME280;66426;51.454;7.266;2023-07-31T05:13:48;99507.53;;;16.00;nan
77360;BME280;66426;51.454;7.266;2023-07-31T05:14:49;99516.59;;;16.53;nan
77360;BME280;66426;51.454;7.266;2023-07-31T05:15:51;99498.97;;;16.36;nan
77360;BME280;66426;51.454;7.266;2023-07-31T05:16:52;99509.19;;;16.44;nan
77360;BME280;66426;51.454;7.266;2023-07-31T05:17:53;99507.03;;;16.38;nan
77360;BME280;66426;51.454;7.266;2023-07-31T05:18:54;99503.44;;;16.37;nan
77360;BME280;66426;51.454;7.266;2023-07-31T05:19:55;99506.28;;;16.36;nan
77360;BME280;66426;51.454;7.266;2023-07-31T05:20:56;99496.56;;;17.27;nan
77360;BME280;66426;51.454;7.266;2023-07-31T05:21:57;99493.09;;;17.15;nan
77360;BME280;66426;51.454;7.266;2023-07-31T05:22:57;99497.63;;;17.05;nan
77360;BME280;66426;51.454;7.266;2023-07-31T05:23:58;99503.34;;;16.60;nan
77360;BME280;66426;51.454;7.266;2023-07-31T05:24:59;99490.78;;;17.11;nan
77360;BME280;66426;51.454;7.266;2023-07-31T05:26:03;99493.78;;;16.66;nan
77360;BME280;66426;51.454;7.266;2023-07-31T05:27:04;99498.25;;;16.34;nan
77360;BME280;66426;51.454;7.266;2023-07-31T05:28:05;99495.41;;;16.36;nan
77360;BME280;66426;51.454;7.266;2023-07-31T05:29:06;99495.53;;;16.88;nan
77360;BME280;66426;51.454;7.266;2023-07-31T05:30:07;99491.78;;;16.68;nan
77360;BME280;66426;51.454;7.266;2023-07-31T05:31:10;99491.50;;;16.50;nan
77360;BME280;66426;51.454;7.266;2023-07-31T05:32:11;99491.22;;;16.32;nan
77360;BME280;66426;51.454;7.266;2023-07-31T05:33:12;99493.16;;;16.20;nan
77360;BME280;66426;51.454;7.266;2023-07-31T05:34:13;99491.41;;;16.19;nan
77360;BME280;66426;51.454;7.266;2023-07-31T05:35:14;99495.97;;;16.18;nan